AirNav   Everest Fuels
 
 994 users online  

58FD Southerly Airport
Dundee, Florida, USA

GOING TO DUNDEE?


FAA INFORMATION EFFECTIVE 30 DECEMBER 2021

Location

FAA Identifier: 58FD
Lat/Long: 28-00-51.0000N 081-32-26.0000W
28-00.850000N 081-32.433333W
28.0141667,-81.5405556
(estimated)
Elevation: 78 ft. / 24 m (estimated)
Variation: 03W (1990)
From city: 4 miles E of DUNDEE, FL
Time zone: UTC -5 (UTC -4 during Daylight Saving Time)
Zip code: 33853

Airport Operations

Airport use: Private use. Permission required prior to landing
Activation date: 08/1992
Control tower: no
ARTCC: JACKSONVILLE CENTER
FSS: SAINT PETERSBURG FLIGHT SERVICE STATION
Attendance: UNATNDD
Wind indicator: yes
Segmented circle: no

Airport Communications

WX AWOS-3 at X07 (8 nm SW): 124.225 (863-678-1334)
WX ASOS at GIF (12 nm W): 133.675 (863-956-2097)
WX AWOS-3 at BOW (14 nm W): 123.775 (863-533-9004)
WX AWOS-3PT at ISM (17 nm N): PHONE 407-847-0533

Nearby radio navigation aids

VOR radial/distance  VOR name  Freq  Var
LALr085/25.1LAKELAND VORTAC116.0001E
ORLr199/33.5ORLANDO VORTAC112.2000E

Airport Services

Runway Information

Runway 9/27

Dimensions: 2300 x 50 ft. / 701 x 15 m
Surface: turf, in good condition
RUNWAY 9  RUNWAY 27
Traffic pattern: leftleft

Airport Ownership and Management from official FAA records

Ownership: Privately-owned
Owner: FRANK J. DREWNIANY, M.D.
401 BROADSTAIRS DR
HAINES CITY, FL 33844-4338
Phone 305-282-8065
Manager: FRANK J. DREWNIANY, M.D.
401 BROADSTAIRS DR
HAINES CITY, FL 33844-4338
Phone 305-282-8065

Airport Operational Statistics

Aircraft based on the field: 2
Single engine airplanes: 2
    

Additional Remarks

FOR CD CTC ORLANDO APCH AT 407-852-7553.

Instrument Procedures

There are no published instrument procedures at 58FD.

Some nearby airports with instrument procedures:

X07 - Lake Wales Municipal Airport (8 nm SW)
KGIF - Winter Haven Regional Airport (12 nm W)
KBOW - Bartow Executive Airport (14 nm W)
KISM - Kissimmee Gateway Airport (17 nm N)
KAVO - Avon Park Executive Airport (25 nm S)
 
Loc | Ops | Rwys | IFR | FBO | Links
Com | Nav | Svcs | Stats | Notes

Reliance Aviation
AirBoss

 
Area around 58FD (Southerly Airport)
 
Road maps at: MapQuest Bing Google
 
Aerial photo
No photo
 
Sectional chart

 
Airport distance calculator
Flying to Southerly Airport? Find the distance to fly.

From to 58FD

Sunrise and sunset
Times for 16-Jan-2022
 Local
(UTC-5)
 Zulu
(UTC)
Morning civil twilight06:5511:55
Sunrise07:2012:20
Sunset17:5222:52
Evening civil twilight18:1823:18

Current date and time
Zulu (UTC)  16-Jan-2022 19:15:03
Local (UTC-5)  16-Jan-2022 14:15:03
 
METAR
KX07 
8nm SW 
161855Z AUTO 26010G16KT 7SM OVC049 18/13 A2980 RMK A01
KGIF 
12nm W 
161853Z AUTO 27016G26KT 10SM BKN060 BKN095 19/09 A2978 RMK AO2 PK WND 27026/1849 SLP081 T01940094
KBOW 
13nm W 
161850Z 26015KT 10SM SCT050 18/10 A2978
KISM 
17nm N 
161856Z 27014G23KT 10SM OVC050 18/11 A2977 RMK AO2 SLP080 T01780106 PNO $
TAF
KISM 
17nm N 
161739Z 1618/1718 26011G20KT P6SM SCT015 SCT025 BKN100 FM162200 26015G22KT P6SM BKN050 OVC200 FM171000 29012KT P6SM SCT050 BKN250 FM171600 29014G21KT P6SM FEW060 FEW250
NOTAMs
Click for the latest NOTAMs
NOTAMs are issued by the DoD/FAA and will open in a separate window not controlled by AirNav.

 

 
 

Would you like to see your business listed on this page?

 If your business provides an interesting product or service to pilots, flight crews, aircraft, or users of the Southerly Airport, you should consider listing it here.  To start the listing process, click on the button below
 
Add a business
 

Other Pages about Southerly Airport

Update a link
 
Copyright © AirNav, LLC. All rights reserved. Privacy Policy  Contact